sensor_id;sensor_type;location;lat;lon;timestamp;temperature;humidity
48328;DHT22;34136;51.022;7.082;2024-03-29T00:02:25;8.40;99.90
48328;DHT22;34136;51.022;7.082;2024-03-29T00:05:11;8.40;99.90
48328;DHT22;34136;51.022;7.082;2024-03-29T00:07:57;8.40;99.90
48328;DHT22;34136;51.022;7.082;2024-03-29T00:10:43;8.40;99.90
48328;DHT22;34136;51.022;7.082;2024-03-29T00:13:29;8.30;99.90
48328;DHT22;34136;51.022;7.082;2024-03-29T00:16:15;8.30;99.90
48328;DHT22;34136;51.022;7.082;2024-03-29T00:19:01;8.30;99.90
48328;DHT22;34136;51.022;7.082;2024-03-29T00:21:47;8.20;99.90
48328;DHT22;34136;51.022;7.082;2024-03-29T00:24:33;8.20;99.90
48328;DHT22;34136;51.022;7.082;2024-03-29T00:27:19;8.20;99.90
48328;DHT22;34136;51.022;7.082;2024-03-29T00:30:05;8.20;99.90
48328;DHT22;34136;51.022;7.082;2024-03-29T00:32:51;8.20;99.90
48328;DHT22;34136;51.022;7.082;2024-03-29T00:35:37;8.20;99.90
48328;DHT22;34136;51.022;7.082;2024-03-29T00:38:23;8.30;99.90
48328;DHT22;34136;51.022;7.082;2024-03-29T00:41:09;8.30;99.90
48328;DHT22;34136;51.022;7.082;2024-03-29T00:43:55;8.40;99.90
48328;DHT22;34136;51.022;7.082;2024-03-29T00:46:41;8.40;99.90
48328;DHT22;34136;51.022;7.082;2024-03-29T00:49:27;8.40;99.90
48328;DHT22;34136;51.022;7.082;2024-03-29T00:52:13;8.40;99.90
48328;DHT22;34136;51.022;7.082;2024-03-29T00:54:59;8.50;99.90
48328;DHT22;34136;51.022;7.082;2024-03-29T00:57:45;8.50;99.90
48328;DHT22;34136;51.022;7.082;2024-03-29T01:00:31;8.50;99.90
48328;DHT22;34136;51.022;7.082;2024-03-29T01:03:17;8.50;99.90
48328;DHT22;34136;51.022;7.082;2024-03-29T01:06:03;8.50;99.90
48328;DHT22;34136;51.022;7.082;2024-03-29T01:08:50;8.60;99.90
48328;DHT22;34136;51.022;7.082;2024-03-29T01:11:36;8.60;99.90
48328;DHT22;34136;51.022;7.082;2024-03-29T01:14:22;8.70;99.90
48328;DHT22;34136;51.022;7.082;2024-03-29T01:17:08;8.70;99.90
48328;DHT22;34136;51.022;7.082;2024-03-29T01:19:54;8.80;99.90
48328;DHT22;34136;51.022;7.082;2024-03-29T01:22:40;8.80;99.90
48328;DHT22;34136;51.022;7.082;2024-03-29T01:25:27;8.80;99.90
48328;DHT22;34136;51.022;7.082;2024-03-29T01:28:13;8.80;99.90
48328;DHT22;34136;51.022;7.082;2024-03-29T01:30:59;8.80;99.90
48328;DHT22;34136;51.022;7.082;2024-03-29T01:33:45;8.80;99.90
48328;DHT22;34136;51.022;7.082;2024-03-29T01:36:31;8.90;99.90
48328;DHT22;34136;51.022;7.082;2024-03-29T01:39:17;8.90;99.90
48328;DHT22;34136;51.022;7.082;2024-03-29T01:42:03;8.90;99.90
48328;DHT22;34136;51.022;7.082;2024-03-29T01:44:49;9.00;99.90
48328;DHT22;34136;51.022;7.082;2024-03-29T01:47:35;9.00;99.90
48328;DHT22;34136;51.022;7.082;2024-03-29T01:50:21;9.00;99.90
48328;DHT22;34136;51.022;7.082;2024-03-29T01:53:08;9.00;99.90
48328;DHT22;34136;51.022;7.082;2024-03-29T01:55:54;9.00;99.90
48328;DHT22;34136;51.022;7.082;2024-03-29T01:58:40;9.00;99.90
48328;DHT22;34136;51.022;7.082;2024-03-29T02:01:26;9.00;99.90
48328;DHT22;34136;51.022;7.082;2024-03-29T02:04:13;9.10;99.90
48328;DHT22;34136;51.022;7.082;2024-03-29T02:06:59;9.10;99.90
48328;DHT22;34136;51.022;7.082;2024-03-29T02:09:45;9.10;99.90
48328;DHT22;34136;51.022;7.082;2024-03-29T02:12:31;9.10;99.90
48328;DHT22;34136;51.022;7.082;2024-03-29T02:15:18;9.10;99.90
48328;DHT22;34136;51.022;7.082;2024-03-29T02:18:04;9.10;99.90
48328;DHT22;34136;51.022;7.082;2024-03-29T02:20:50;9.10;99.90
48328;DHT22;34136;51.022;7.082;2024-03-29T02:23:37;9.20;99.90
48328;DHT22;34136;51.022;7.082;2024-03-29T02:26:23;9.20;99.90
48328;DHT22;34136;51.022;7.082;2024-03-29T02:29:09;9.20;99.90
48328;DHT22;34136;51.022;7.082;2024-03-29T02:31:56;9.30;99.90
48328;DHT22;34136;51.022;7.082;2024-03-29T02:34:42;9.30;99.90
48328;DHT22;34136;51.022;7.082;2024-03-29T02:37:28;9.30;99.90
48328;DHT22;34136;51.022;7.082;2024-03-29T02:40:14;9.40;99.90
48328;DHT22;34136;51.022;7.082;2024-03-29T02:43:00;9.30;99.90
48328;DHT22;34136;51.022;7.082;2024-03-29T02:45:46;9.40;99.90
48328;DHT22;34136;51.022;7.082;2024-03-29T02:48:32;9.40;99.90
48328;DHT22;34136;51.022;7.082;2024-03-29T02:51:18;9.50;99.90
48328;DHT22;34136;51.022;7.082;2024-03-29T02:54:04;9.50;99.90
48328;DHT22;34136;51.022;7.082;2024-03-29T02:56:51;9.50;99.90
48328;DHT22;34136;51.022;7.082;2024-03-29T02:59:39;9.50;99.90
48328;DHT22;34136;51.022;7.082;2024-03-29T03:02:25;9.50;99.90
48328;DHT22;34136;51.022;7.082;2024-03-29T03:05:11;9.50;99.90
48328;DHT22;34136;51.022;7.082;2024-03-29T03:07:57;9.50;99.90
48328;DHT22;34136;51.022;7.082;2024-03-29T03:10:47;9.50;99.90
48328;DHT22;34136;51.022;7.082;2024-03-29T03:13:33;9.50;99.90
48328;DHT22;34136;51.022;7.082;2024-03-29T03:16:19;9.60;99.90
48328;DHT22;34136;51.022;7.082;2024-03-29T03:19:05;9.60;99.90
48328;DHT22;34136;51.022;7.082;2024-03-29T03:21:51;9.60;99.90
48328;DHT22;34136;51.022;7.082;2024-03-29T03:24:37;9.60;99.90
48328;DHT22;34136;51.022;7.082;2024-03-29T03:27:23;9.50;99.90
48328;DHT22;34136;51.022;7.082;2024-03-29T03:30:09;9.50;99.90
48328;DHT22;34136;51.022;7.082;2024-03-29T03:32:56;9.50;99.90
48328;DHT22;34136;51.022;7.082;2024-03-29T03:35:42;9.50;99.90
48328;DHT22;34136;51.022;7.082;2024-03-29T03:38:28;9.40;99.90
48328;DHT22;34136;51.022;7.082;2024-03-29T03:41:14;9.50;99.90
48328;DHT22;34136;51.022;7.082;2024-03-29T03:44:00;9.50;99.90
48328;DHT22;34136;51.022;7.082;2024-03-29T03:46:47;9.50;99.90
48328;DHT22;34136;51.022;7.082;2024-03-29T03:49:32;9.50;99.90
48328;DHT22;34136;51.022;7.082;2024-03-29T03:52:19;9.40;99.90
48328;DHT22;34136;51.022;7.082;2024-03-29T03:55:05;9.50;99.90
48328;DHT22;34136;51.022;7.082;2024-03-29T03:57:51;9.50;99.90
48328;DHT22;34136;51.022;7.082;2024-03-29T04:00:38;9.50;99.90
48328;DHT22;34136;51.022;7.082;2024-03-29T04:03:24;9.50;99.90
48328;DHT22;34136;51.022;7.082;2024-03-29T04:06:10;9.40;99.90
48328;DHT22;34136;51.022;7.082;2024-03-29T04:08:56;9.50;99.90
48328;DHT22;34136;51.022;7.082;2024-03-29T04:11:42;9.50;99.90
48328;DHT22;34136;51.022;7.082;2024-03-29T04:14:28;9.50;99.90
48328;DHT22;34136;51.022;7.082;2024-03-29T04:17:15;9.50;99.90
48328;DHT22;34136;51.022;7.082;2024-03-29T04:20:01;9.50;99.90
48328;DHT22;34136;51.022;7.082;2024-03-29T04:22:47;9.50;99.90
48328;DHT22;34136;51.022;7.082;2024-03-29T04:25:33;9.50;99.90
48328;DHT22;34136;51.022;7.082;2024-03-29T04:28:19;9.50;99.90
48328;DHT22;34136;51.022;7.082;2024-03-29T04:31:05;9.50;99.90
48328;DHT22;34136;51.022;7.082;2024-03-29T04:33:51;9.40;99.90
48328;DHT22;34136;51.022;7.082;2024-03-29T04:36:37;9.50;99.90
48328;DHT22;34136;51.022;7.082;2024-03-29T04:39:23;9.50;99.90
48328;DHT22;34136;51.022;7.082;2024-03-29T04:42:10;9.50;99.90
48328;DHT22;34136;51.022;7.082;2024-03-29T04:44:56;9.40;99.90
48328;DHT22;34136;51.022;7.082;2024-03-29T04:47:42;9.40;99.90
48328;DHT22;34136;51.022;7.082;2024-03-29T04:50:28;9.40;99.90
48328;DHT22;34136;51.022;7.082;2024-03-29T04:53:14;9.40;99.90
48328;DHT22;34136;51.022;7.082;2024-03-29T04:56:00;9.30;99.90
48328;DHT22;34136;51.022;7.082;2024-03-29T04:58:46;9.30;99.90
48328;DHT22;34136;51.022;7.082;2024-03-29T05:01:32;9.20;99.90
48328;DHT22;34136;51.022;7.082;2024-03-29T05:04:18;9.20;99.90
48328;DHT22;34136;51.022;7.082;2024-03-29T05:07:05;9.20;99.90
48328;DHT22;34136;51.022;7.082;2024-03-29T05:09:51;9.10;99.90
48328;DHT22;34136;51.022;7.082;2024-03-29T05:12:37;9.10;99.90
48328;DHT22;34136;51.022;7.082;2024-03-29T05:15:23;9.00;99.90
48328;DHT22;34136;51.022;7.082;2024-03-29T05:18:09;8.90;99.90
48328;DHT22;34136;51.022;7.082;2024-03-29T05:20:55;8.90;99.90
48328;DHT22;34136;51.022;7.082;2024-03-29T05:23:41;8.90;99.90
48328;DHT22;34136;51.022;7.082;2024-03-29T05:26:27;8.80;99.90
48328;DHT22;34136;51.022;7.082;2024-03-29T05:29:13;8.80;99.90
48328;DHT22;34136;51.022;7.082;2024-03-29T05:32:00;8.80;99.90
48328;DHT22;34136;51.022;7.082;2024-03-29T05:34:46;8.90;99.90
48328;DHT22;34136;51.022;7.082;2024-03-29T05:37:32;8.90;99.90
48328;DHT22;34136;51.022;7.082;2024-03-29T05:43:42;8.90;99.90
48328;DHT22;34136;51.022;7.082;2024-03-29T05:46:28;8.80;99.90
48328;DHT22;34136;51.022;7.082;2024-03-29T05:49:14;8.80;99.90
48328;DHT22;34136;51.022;7.082;2024-03-29T05:52:00;8.90;99.90
48328;DHT22;34136;51.022;7.082;2024-03-29T05:54:46;8.80;99.90
48328;DHT22;34136;51.022;7.082;2024-03-29T05:57:32;8.90;99.90
48328;DHT22;34136;51.022;7.082;2024-03-29T06:00:18;8.90;99.90
48328;DHT22;34136;51.022;7.082;2024-03-29T06:03:05;8.90;99.90
48328;DHT22;34136;51.022;7.082;2024-03-29T06:05:51;8.90;99.90
48328;DHT22;34136;51.022;7.082;2024-03-29T06:08:37;8.90;99.90
48328;DHT22;34136;51.022;7.082;2024-03-29T06:11:23;8.90;99.90
48328;DHT22;34136;51.022;7.082;2024-03-29T06:14:10;8.90;99.90
48328;DHT22;34136;51.022;7.082;2024-03-29T06:16:56;8.90;99.90
48328;DHT22;34136;51.022;7.082;2024-03-29T06:19:42;8.80;99.90
48328;DHT22;34136;51.022;7.082;2024-03-29T06:22:28;8.80;99.90
48328;DHT22;34136;51.022;7.082;2024-03-29T06:25:14;8.90;99.90
48328;DHT22;34136;51.022;7.082;2024-03-29T06:28:00;9.00;99.90
48328;DHT22;34136;51.022;7.082;2024-03-29T06:30:46;9.00;99.90
48328;DHT22;34136;51.022;7.082;2024-03-29T06:33:32;9.00;99.90
48328;DHT22;34136;51.022;7.082;2024-03-29T06:36:18;9.10;99.90
48328;DHT22;34136;51.022;7.082;2024-03-29T06:39:07;9.10;99.90
48328;DHT22;34136;51.022;7.082;2024-03-29T06:41:53;9.20;99.90
48328;DHT22;34136;51.022;7.082;2024-03-29T06:44:39;9.20;99.90
48328;DHT22;34136;51.022;7.082;2024-03-29T06:47:27;9.20;99.90
48328;DHT22;34136;51.022;7.082;2024-03-29T06:50:13;9.30;99.90
48328;DHT22;34136;51.022;7.082;2024-03-29T06:52:59;9.40;99.90
48328;DHT22;34136;51.022;7.082;2024-03-29T06:55:46;9.40;99.90
48328;DHT22;34136;51.022;7.082;2024-03-29T06:58:32;9.40;99.90
48328;DHT22;34136;51.022;7.082;2024-03-29T07:01:18;9.50;99.90
48328;DHT22;34136;51.022;7.082;2024-03-29T07:04:04;9.50;99.90
48328;DHT22;34136;51.022;7.082;2024-03-29T07:06:50;9.50;99.90
48328;DHT22;34136;51.022;7.082;2024-03-29T07:09:37;9.70;99.90
48328;DHT22;34136;51.022;7.082;2024-03-29T07:12:23;9.70;99.90
48328;DHT22;34136;51.022;7.082;2024-03-29T07:15:09;9.80;99.90
48328;DHT22;34136;51.022;7.082;2024-03-29T07:17:55;9.80;99.90
48328;DHT22;34136;51.022;7.082;2024-03-29T07:20:41;9.90;99.90
48328;DHT22;34136;51.022;7.082;2024-03-29T07:23:28;9.90;99.90
48328;DHT22;34136;51.022;7.082;2024-03-29T07:26:14;9.90;99.90
48328;DHT22;34136;51.022;7.082;2024-03-29T07:29:00;9.90;99.90
48328;DHT22;34136;51.022;7.082;2024-03-29T07:31:46;10.00;99.90
48328;DHT22;34136;51.022;7.082;2024-03-29T07:34:32;10.10;99.90
48328;DHT22;34136;51.022;7.082;2024-03-29T07:37:18;10.10;99.90
48328;DHT22;34136;51.022;7.082;2024-03-29T07:40:05;10.30;99.90
48328;DHT22;34136;51.022;7.082;2024-03-29T07:42:51;10.30;99.90
48328;DHT22;34136;51.022;7.082;2024-03-29T07:45:37;10.40;99.90
48328;DHT22;34136;51.022;7.082;2024-03-29T07:48:23;10.40;99.90
48328;DHT22;34136;51.022;7.082;2024-03-29T07:51:09;10.40;99.90
48328;DHT22;34136;51.022;7.082;2024-03-29T07:53:55;10.50;99.90
48328;DHT22;34136;51.022;7.082;2024-03-29T07:56:41;10.50;99.90
48328;DHT22;34136;51.022;7.082;2024-03-29T07:59:28;10.50;99.90
48328;DHT22;34136;51.022;7.082;2024-03-29T08:02:14;10.50;99.90
48328;DHT22;34136;51.022;7.082;2024-03-29T08:05:00;10.60;99.90
48328;DHT22;34136;51.022;7.082;2024-03-29T08:07:46;10.70;99.90
48328;DHT22;34136;51.022;7.082;2024-03-29T08:10:32;10.70;99.90
48328;DHT22;34136;51.022;7.082;2024-03-29T08:13:18;10.80;99.90
48328;DHT22;34136;51.022;7.082;2024-03-29T08:16:05;10.90;99.90
48328;DHT22;34136;51.022;7.082;2024-03-29T08:18:50;10.90;99.90
48328;DHT22;34136;51.022;7.082;2024-03-29T08:21:37;11.00;99.90
48328;DHT22;34136;51.022;7.082;2024-03-29T08:24:23;11.00;99.90
48328;DHT22;34136;51.022;7.082;2024-03-29T08:27:09;11.00;99.90
48328;DHT22;34136;51.022;7.082;2024-03-29T08:29:55;11.20;99.90
48328;DHT22;34136;51.022;7.082;2024-03-29T08:32:41;11.20;99.90
48328;DHT22;34136;51.022;7.082;2024-03-29T08:35:28;11.20;99.90
48328;DHT22;34136;51.022;7.082;2024-03-29T08:38:14;11.30;99.90
48328;DHT22;34136;51.022;7.082;2024-03-29T08:41:00;11.40;99.90
48328;DHT22;34136;51.022;7.082;2024-03-29T08:43:47;11.50;99.90
48328;DHT22;34136;51.022;7.082;2024-03-29T08:46:33;11.60;99.90
48328;DHT22;34136;51.022;7.082;2024-03-29T08:49:19;11.60;99.90
48328;DHT22;34136;51.022;7.082;2024-03-29T08:52:05;11.70;99.90
48328;DHT22;34136;51.022;7.082;2024-03-29T08:54:51;11.80;99.90
48328;DHT22;34136;51.022;7.082;2024-03-29T08:57:37;11.90;99.90
48328;DHT22;34136;51.022;7.082;2024-03-29T09:00:24;12.00;99.90
48328;DHT22;34136;51.022;7.082;2024-03-29T09:03:10;12.10;99.90
48328;DHT22;34136;51.022;7.082;2024-03-29T09:05:56;12.20;99.90
48328;DHT22;34136;51.022;7.082;2024-03-29T09:08:42;12.30;99.90
48328;DHT22;34136;51.022;7.082;2024-03-29T09:11:28;12.40;99.90
48328;DHT22;34136;51.022;7.082;2024-03-29T09:14:14;12.50;99.90
48328;DHT22;34136;51.022;7.082;2024-03-29T09:17:00;12.60;99.90
48328;DHT22;34136;51.022;7.082;2024-03-29T09:19:48;12.70;99.90
48328;DHT22;34136;51.022;7.082;2024-03-29T09:22:34;12.80;99.90
48328;DHT22;34136;51.022;7.082;2024-03-29T09:25:21;12.90;99.90
48328;DHT22;34136;51.022;7.082;2024-03-29T09:28:07;12.90;99.90
48328;DHT22;34136;51.022;7.082;2024-03-29T09:30:57;12.90;99.90
48328;DHT22;34136;51.022;7.082;2024-03-29T09:33:43;12.80;99.90
48328;DHT22;34136;51.022;7.082;2024-03-29T09:36:29;13.00;99.90
48328;DHT22;34136;51.022;7.082;2024-03-29T09:39:15;13.10;99.90
48328;DHT22;34136;51.022;7.082;2024-03-29T09:42:04;13.20;99.90
48328;DHT22;34136;51.022;7.082;2024-03-29T09:44:51;13.30;99.90
48328;DHT22;34136;51.022;7.082;2024-03-29T09:47:40;13.20;99.90
48328;DHT22;34136;51.022;7.082;2024-03-29T09:50:28;13.30;99.90
48328;DHT22;34136;51.022;7.082;2024-03-29T09:53:14;13.30;99.90
48328;DHT22;34136;51.022;7.082;2024-03-29T09:56:01;13.30;99.90
48328;DHT22;34136;51.022;7.082;2024-03-29T09:58:48;13.30;99.90
48328;DHT22;34136;51.022;7.082;2024-03-29T10:01:35;13.50;99.90
48328;DHT22;34136;51.022;7.082;2024-03-29T10:04:23;13.60;99.90
48328;DHT22;34136;51.022;7.082;2024-03-29T10:07:09;13.80;99.90
48328;DHT22;34136;51.022;7.082;2024-03-29T10:09:55;13.90;99.90
48328;DHT22;34136;51.022;7.082;2024-03-29T10:12:41;14.00;99.90
48328;DHT22;34136;51.022;7.082;2024-03-29T10:15:27;14.10;99.90
48328;DHT22;34136;51.022;7.082;2024-03-29T10:18:14;14.00;99.90
48328;DHT22;34136;51.022;7.082;2024-03-29T10:21:01;14.00;99.90
48328;DHT22;34136;51.022;7.082;2024-03-29T10:23:47;14.10;99.90
48328;DHT22;34136;51.022;7.082;2024-03-29T10:26:33;14.20;99.90
48328;DHT22;34136;51.022;7.082;2024-03-29T10:29:19;14.20;99.90
48328;DHT22;34136;51.022;7.082;2024-03-29T10:32:05;14.30;99.90
48328;DHT22;34136;51.022;7.082;2024-03-29T10:34:51;14.40;99.90
48328;DHT22;34136;51.022;7.082;2024-03-29T10:37:37;14.50;99.90
48328;DHT22;34136;51.022;7.082;2024-03-29T10:40:23;14.50;99.90
48328;DHT22;34136;51.022;7.082;2024-03-29T10:43:10;14.50;99.90
48328;DHT22;34136;51.022;7.082;2024-03-29T10:45:56;14.50;99.90
48328;DHT22;34136;51.022;7.082;2024-03-29T10:48:42;14.50;99.90
48328;DHT22;34136;51.022;7.082;2024-03-29T10:51:28;14.70;99.90
48328;DHT22;34136;51.022;7.082;2024-03-29T10:54:15;14.60;99.90
48328;DHT22;34136;51.022;7.082;2024-03-29T10:57:04;14.60;99.90
48328;DHT22;34136;51.022;7.082;2024-03-29T11:05:23;14.60;99.90
48328;DHT22;34136;51.022;7.082;2024-03-29T11:08:09;14.50;99.90
48328;DHT22;34136;51.022;7.082;2024-03-29T11:10:57;14.60;99.90
48328;DHT22;34136;51.022;7.082;2024-03-29T11:16:29;14.70;99.90
48328;DHT22;34136;51.022;7.082;2024-03-29T11:19:15;14.80;99.90
48328;DHT22;34136;51.022;7.082;2024-03-29T11:22:02;14.90;99.90
48328;DHT22;34136;51.022;7.082;2024-03-29T11:24:50;14.90;99.90
48328;DHT22;34136;51.022;7.082;2024-03-29T11:27:36;14.90;99.90
48328;DHT22;34136;51.022;7.082;2024-03-29T11:30:22;14.80;99.90
48328;DHT22;34136;51.022;7.082;2024-03-29T11:33:24;14.90;99.90
48328;DHT22;34136;51.022;7.082;2024-03-29T11:36:10;14.80;99.90
48328;DHT22;34136;51.022;7.082;2024-03-29T11:38:57;14.80;99.90
48328;DHT22;34136;51.022;7.082;2024-03-29T11:41:46;14.80;99.90
48328;DHT22;34136;51.022;7.082;2024-03-29T11:44:32;14.80;99.90
48328;DHT22;34136;51.022;7.082;2024-03-29T11:47:18;14.90;99.90
48328;DHT22;34136;51.022;7.082;2024-03-29T11:50:06;14.90;99.90
48328;DHT22;34136;51.022;7.082;2024-03-29T11:52:52;14.70;99.90
48328;DHT22;34136;51.022;7.082;2024-03-29T11:55:38;14.80;99.90
48328;DHT22;34136;51.022;7.082;2024-03-29T11:58:25;14.80;99.90
48328;DHT22;34136;51.022;7.082;2024-03-29T12:01:11;14.90;99.90
48328;DHT22;34136;51.022;7.082;2024-03-29T12:03:57;15.00;99.90
48328;DHT22;34136;51.022;7.082;2024-03-29T12:06:43;14.90;99.90
48328;DHT22;34136;51.022;7.082;2024-03-29T12:09:29;14.90;99.90
48328;DHT22;34136;51.022;7.082;2024-03-29T12:12:15;15.00;99.90
48328;DHT22;34136;51.022;7.082;2024-03-29T12:15:01;14.90;99.90
48328;DHT22;34136;51.022;7.082;2024-03-29T12:17:57;14.80;99.90
48328;DHT22;34136;51.022;7.082;2024-03-29T12:20:44;14.70;99.90
48328;DHT22;34136;51.022;7.082;2024-03-29T12:23:31;14.60;99.90
48328;DHT22;34136;51.022;7.082;2024-03-29T12:26:17;14.60;99.90
48328;DHT22;34136;51.022;7.082;2024-03-29T12:29:03;14.50;99.90
48328;DHT22;34136;51.022;7.082;2024-03-29T12:31:56;14.50;99.90
48328;DHT22;34136;51.022;7.082;2024-03-29T12:34:42;14.40;99.90
48328;DHT22;34136;51.022;7.082;2024-03-29T12:37:28;14.50;99.90
48328;DHT22;34136;51.022;7.082;2024-03-29T12:40:15;14.60;99.90
48328;DHT22;34136;51.022;7.082;2024-03-29T12:43:02;14.50;99.90
48328;DHT22;34136;51.022;7.082;2024-03-29T12:45:49;14.50;99.90
48328;DHT22;34136;51.022;7.082;2024-03-29T12:48:35;14.50;99.90
48328;DHT22;34136;51.022;7.082;2024-03-29T12:51:22;14.50;99.90
48328;DHT22;34136;51.022;7.082;2024-03-29T12:54:08;14.40;99.90
48328;DHT22;34136;51.022;7.082;2024-03-29T12:56:54;14.30;99.90
48328;DHT22;34136;51.022;7.082;2024-03-29T12:59:40;14.30;99.90
48328;DHT22;34136;51.022;7.082;2024-03-29T13:02:26;14.20;99.90
48328;DHT22;34136;51.022;7.082;2024-03-29T13:05:12;14.30;99.90
48328;DHT22;34136;51.022;7.082;2024-03-29T13:07:59;14.40;99.90
48328;DHT22;34136;51.022;7.082;2024-03-29T13:10:45;14.40;99.90
48328;DHT22;34136;51.022;7.082;2024-03-29T13:13:31;14.30;99.90
48328;DHT22;34136;51.022;7.082;2024-03-29T13:16:17;14.40;99.90
48328;DHT22;34136;51.022;7.082;2024-03-29T13:19:03;14.50;99.90
48328;DHT22;34136;51.022;7.082;2024-03-29T13:21:49;14.50;99.90
48328;DHT22;34136;51.022;7.082;2024-03-29T13:24:36;14.50;99.90
48328;DHT22;34136;51.022;7.082;2024-03-29T13:27:22;14.60;99.90
48328;DHT22;34136;51.022;7.082;2024-03-29T13:30:09;14.70;99.90
48328;DHT22;34136;51.022;7.082;2024-03-29T13:32:56;14.80;99.90
48328;DHT22;34136;51.022;7.082;2024-03-29T13:35:42;14.90;99.90
48328;DHT22;34136;51.022;7.082;2024-03-29T13:38:28;15.00;99.90
48328;DHT22;34136;51.022;7.082;2024-03-29T13:41:14;15.10;99.90
48328;DHT22;34136;51.022;7.082;2024-03-29T13:44:00;15.10;99.90
48328;DHT22;34136;51.022;7.082;2024-03-29T13:46:46;15.00;99.90
48328;DHT22;34136;51.022;7.082;2024-03-29T13:49:32;15.00;99.90
48328;DHT22;34136;51.022;7.082;2024-03-29T13:52:19;15.10;99.90
48328;DHT22;34136;51.022;7.082;2024-03-29T13:55:05;15.10;99.90
48328;DHT22;34136;51.022;7.082;2024-03-29T13:57:52;15.10;99.90
48328;DHT22;34136;51.022;7.082;2024-03-29T14:00:38;15.00;99.90
48328;DHT22;34136;51.022;7.082;2024-03-29T14:03:24;15.20;99.90
48328;DHT22;34136;51.022;7.082;2024-03-29T14:06:10;15.30;99.90
48328;DHT22;34136;51.022;7.082;2024-03-29T14:08:57;15.30;99.90
48328;DHT22;34136;51.022;7.082;2024-03-29T14:11:43;15.50;99.90
48328;DHT22;34136;51.022;7.082;2024-03-29T14:14:30;15.60;99.90
48328;DHT22;34136;51.022;7.082;2024-03-29T14:17:17;15.50;99.90
48328;DHT22;34136;51.022;7.082;2024-03-29T14:20:03;15.50;99.90
48328;DHT22;34136;51.022;7.082;2024-03-29T14:22:49;15.40;99.90
48328;DHT22;34136;51.022;7.082;2024-03-29T14:25:35;15.40;99.90
48328;DHT22;34136;51.022;7.082;2024-03-29T14:28:21;15.50;99.90
48328;DHT22;34136;51.022;7.082;2024-03-29T14:31:07;15.40;99.90
48328;DHT22;34136;51.022;7.082;2024-03-29T14:33:53;15.50;99.90
48328;DHT22;34136;51.022;7.082;2024-03-29T14:36:39;15.50;99.90
48328;DHT22;34136;51.022;7.082;2024-03-29T14:39:25;15.50;99.90
48328;DHT22;34136;51.022;7.082;2024-03-29T14:42:11;15.60;99.90
48328;DHT22;34136;51.022;7.082;2024-03-29T14:44:57;15.60;99.90
48328;DHT22;34136;51.022;7.082;2024-03-29T14:47:43;15.60;99.90
48328;DHT22;34136;51.022;7.082;2024-03-29T14:50:29;15.80;99.90
48328;DHT22;34136;51.022;7.082;2024-03-29T14:53:15;15.70;99.90
48328;DHT22;34136;51.022;7.082;2024-03-29T14:56:02;15.60;99.90
48328;DHT22;34136;51.022;7.082;2024-03-29T14:58:48;15.70;99.90
48328;DHT22;34136;51.022;7.082;2024-03-29T15:01:34;15.70;99.90
48328;DHT22;34136;51.022;7.082;2024-03-29T15:04:20;15.70;99.90
48328;DHT22;34136;51.022;7.082;2024-03-29T15:07:06;15.70;99.90
48328;DHT22;34136;51.022;7.082;2024-03-29T15:09:52;15.80;99.90
48328;DHT22;34136;51.022;7.082;2024-03-29T15:12:38;15.90;99.90
48328;DHT22;34136;51.022;7.082;2024-03-29T15:15:24;15.90;99.90
48328;DHT22;34136;51.022;7.082;2024-03-29T15:18:10;15.80;99.90
48328;DHT22;34136;51.022;7.082;2024-03-29T15:20:57;15.90;99.90
48328;DHT22;34136;51.022;7.082;2024-03-29T15:23:43;16.00;99.90
48328;DHT22;34136;51.022;7.082;2024-03-29T15:26:29;15.90;99.90
48328;DHT22;34136;51.022;7.082;2024-03-29T15:29:15;15.90;99.90
48328;DHT22;34136;51.022;7.082;2024-03-29T15:32:02;16.00;99.90
48328;DHT22;34136;51.022;7.082;2024-03-29T15:34:48;15.80;99.90
48328;DHT22;34136;51.022;7.082;2024-03-29T15:37:34;15.70;99.90
48328;DHT22;34136;51.022;7.082;2024-03-29T15:40:20;15.70;99.90
48328;DHT22;34136;51.022;7.082;2024-03-29T15:43:09;15.80;99.90
48328;DHT22;34136;51.022;7.082;2024-03-29T15:45:56;15.80;99.90
48328;DHT22;34136;51.022;7.082;2024-03-29T15:48:42;15.80;99.90
48328;DHT22;34136;51.022;7.082;2024-03-29T15:51:28;15.80;99.90
48328;DHT22;34136;51.022;7.082;2024-03-29T15:54:14;15.70;99.90
48328;DHT22;34136;51.022;7.082;2024-03-29T15:57:00;15.50;99.90
48328;DHT22;34136;51.022;7.082;2024-03-29T15:59:46;15.40;99.90
48328;DHT22;34136;51.022;7.082;2024-03-29T16:02:33;15.40;99.90
48328;DHT22;34136;51.022;7.082;2024-03-29T16:05:23;15.40;99.90
48328;DHT22;34136;51.022;7.082;2024-03-29T16:08:09;15.30;99.90
48328;DHT22;34136;51.022;7.082;2024-03-29T16:13:41;15.30;99.90
48328;DHT22;34136;51.022;7.082;2024-03-29T16:16:27;15.20;99.90
48328;DHT22;34136;51.022;7.082;2024-03-29T16:19:13;15.10;99.90
48328;DHT22;34136;51.022;7.082;2024-03-29T16:21:59;15.10;99.90
48328;DHT22;34136;51.022;7.082;2024-03-29T16:24:45;15.10;99.90
48328;DHT22;34136;51.022;7.082;2024-03-29T16:27:31;15.10;99.90
48328;DHT22;34136;51.022;7.082;2024-03-29T16:30:18;15.00;99.90
48328;DHT22;34136;51.022;7.082;2024-03-29T16:33:04;14.90;99.90
48328;DHT22;34136;51.022;7.082;2024-03-29T16:35:52;14.90;99.90
48328;DHT22;34136;51.022;7.082;2024-03-29T16:38:38;14.90;99.90
48328;DHT22;34136;51.022;7.082;2024-03-29T16:41:24;14.90;99.90
48328;DHT22;34136;51.022;7.082;2024-03-29T16:44:10;14.80;99.90
48328;DHT22;34136;51.022;7.082;2024-03-29T16:46:57;14.70;99.90
48328;DHT22;34136;51.022;7.082;2024-03-29T16:49:43;14.70;99.90
48328;DHT22;34136;51.022;7.082;2024-03-29T16:52:29;14.60;99.90
48328;DHT22;34136;51.022;7.082;2024-03-29T16:55:15;14.70;99.90
48328;DHT22;34136;51.022;7.082;2024-03-29T16:58:02;14.60;99.90
48328;DHT22;34136;51.022;7.082;2024-03-29T17:00:47;14.60;99.90
48328;DHT22;34136;51.022;7.082;2024-03-29T17:03:34;14.50;99.90
48328;DHT22;34136;51.022;7.082;2024-03-29T17:06:19;14.60;99.90
48328;DHT22;34136;51.022;7.082;2024-03-29T17:09:06;14.60;99.90
48328;DHT22;34136;51.022;7.082;2024-03-29T17:11:52;14.40;99.90
48328;DHT22;34136;51.022;7.082;2024-03-29T17:14:38;14.30;99.90
48328;DHT22;34136;51.022;7.082;2024-03-29T17:17:24;14.40;99.90
48328;DHT22;34136;51.022;7.082;2024-03-29T17:20:10;14.40;99.90
48328;DHT22;34136;51.022;7.082;2024-03-29T17:22:56;14.30;99.90
48328;DHT22;34136;51.022;7.082;2024-03-29T17:25:42;14.30;99.90
48328;DHT22;34136;51.022;7.082;2024-03-29T17:28:28;14.20;99.90
48328;DHT22;34136;51.022;7.082;2024-03-29T17:31:14;14.20;99.90
48328;DHT22;34136;51.022;7.082;2024-03-29T17:34:00;14.20;99.90
48328;DHT22;34136;51.022;7.082;2024-03-29T17:36:46;14.10;99.90
48328;DHT22;34136;51.022;7.082;2024-03-29T17:39:33;14.10;99.90
48328;DHT22;34136;51.022;7.082;2024-03-29T17:42:19;13.90;99.90
48328;DHT22;34136;51.022;7.082;2024-03-29T17:45:05;13.90;99.90
48328;DHT22;34136;51.022;7.082;2024-03-29T17:47:51;13.70;99.90
48328;DHT22;34136;51.022;7.082;2024-03-29T17:50:37;13.50;99.90
48328;DHT22;34136;51.022;7.082;2024-03-29T17:53:23;13.40;99.90